FDX4320 UGTB-LTAC
Flight info
| Callsign | FDX4320 |
|---|---|
| Flight time | N/A |
| Altitude | 32000 |
| Route | ZAGOT DCT NOLGA UG261 TBN UW71 ILHAN |
| Aircraft | MD11/H-SDE1E2E3FGHIJ2J3J4J5M1RWXY/LB1D1 |
Departure
| Time | 2026-05-04 02:38 |
|---|---|
| Airport | Tbilisi International Airport (UGTB) |
Arrival
| Time | N/A |
|---|---|
| Airport | Esenboğa International Airport (LTAC) |
| Time | Latitude | Longitude | Altitude | Speed | Heading |
|---|---|---|---|---|---|
| 2026-05-04 02:07 | 41.67085 | 44.96047 | 1534 ft | 0 kts | 43° |
| 2026-05-04 02:16 | 41.67076 | 44.96037 | 1525 ft | 4 kts | 43° |
| 2026-05-04 02:16 | 41.67058 | 44.96015 | 1528 ft | 3 kts | 43° |
| 2026-05-04 02:16 | 41.67043 | 44.95992 | 1525 ft | 4 kts | 76° |
| 2026-05-04 02:17 | 41.67043 | 44.95967 | 1525 ft | 4 kts | 124° |
| 2026-05-04 02:17 | 41.67059 | 44.95941 | 1525 ft | 3 kts | 133° |
| 2026-05-04 02:17 | 41.67062 | 44.95938 | 1525 ft | 0 kts | 133° |
| 2026-05-04 02:30 | 41.67061 | 44.95939 | 1534 ft | 1 kts | 133° |
| 2026-05-04 02:30 | 41.67041 | 44.95967 | 1533 ft | 7 kts | 133° |
| 2026-05-04 02:31 | 41.67009 | 44.96014 | 1526 ft | 7 kts | 133° |
| 2026-05-04 02:31 | 41.66975 | 44.96062 | 1529 ft | 7 kts | 133° |
| 2026-05-04 02:31 | 41.66939 | 44.96114 | 1526 ft | 8 kts | 133° |
| 2026-05-04 02:31 | 41.66903 | 44.96167 | 1529 ft | 8 kts | 130° |
| 2026-05-04 02:32 | 41.66869 | 44.96221 | 1526 ft | 8 kts | 132° |
| 2026-05-04 02:32 | 41.66833 | 44.96273 | 1525 ft | 8 kts | 133° |
| 2026-05-04 02:32 | 41.66795 | 44.96327 | 1526 ft | 8 kts | 134° |
| 2026-05-04 02:32 | 41.66757 | 44.96381 | 1526 ft | 8 kts | 134° |
| 2026-05-04 02:33 | 41.66712 | 44.96420 | 1529 ft | 7 kts | 161° |
| 2026-05-04 02:33 | 41.66652 | 44.96417 | 1531 ft | 12 kts | 191° |
| 2026-05-04 02:33 | 41.66553 | 44.96387 | 1531 ft | 15 kts | 195° |
| 2026-05-04 02:33 | 41.66446 | 44.96354 | 1526 ft | 17 kts | 193° |
| 2026-05-04 02:34 | 41.66330 | 44.96316 | 1527 ft | 18 kts | 194° |
| 2026-05-04 02:34 | 41.66206 | 44.96310 | 1526 ft | 18 kts | 167° |
| 2026-05-04 02:34 | 41.66097 | 44.96396 | 1526 ft | 19 kts | 138° |
| 2026-05-04 02:34 | 41.66001 | 44.96519 | 1526 ft | 20 kts | 136° |
| 2026-05-04 02:35 | 41.65916 | 44.96601 | 1530 ft | 6 kts | 168° |
| 2026-05-04 02:35 | 41.65888 | 44.96591 | 1529 ft | 5 kts | 203° |
| 2026-05-04 02:35 | 41.65866 | 44.96568 | 1527 ft | 0 kts | 224° |
| 2026-05-04 02:35 | 41.65858 | 44.96554 | 1526 ft | 3 kts | 232° |
| 2026-05-04 02:36 | 41.65845 | 44.96515 | 1526 ft | 6 kts | 254° |
| 2026-05-04 02:36 | 41.65847 | 44.96469 | 1524 ft | 2 kts | 292° |
| 2026-05-04 02:36 | 41.65863 | 44.96436 | 1525 ft | 6 kts | 310° |
| 2026-05-04 02:36 | 41.65894 | 44.96394 | 1525 ft | 0 kts | 315° |
| 2026-05-04 02:37 | 41.65896 | 44.96392 | 1525 ft | 1 kts | 315° |
| 2026-05-04 02:37 | 41.65899 | 44.96387 | 1525 ft | 1 kts | 315° |
| 2026-05-04 02:37 | 41.65906 | 44.96379 | 1526 ft | 2 kts | 315° |
| 2026-05-04 02:37 | 41.65908 | 44.96376 | 1526 ft | 0 kts | 315° |
| 2026-05-04 02:38 | 41.66067 | 44.96175 | 1526 ft | 76 kts | 317° |
| 2026-05-04 02:38 | 41.66667 | 44.95424 | 1526 ft | 157 kts | 317° |
| 2026-05-04 02:38 | 41.67577 | 44.94261 | 1778 ft | 197 kts | 315° |
| 2026-05-04 02:38 | 41.68494 | 44.93029 | 2229 ft | 185 kts | 315° |
| 2026-05-04 02:39 | 41.69364 | 44.91853 | 3303 ft | 177 kts | 315° |
| 2026-05-04 02:39 | 41.70265 | 44.90634 | 4058 ft | 188 kts | 315° |
| 2026-05-04 02:39 | 41.71267 | 44.89273 | 4517 ft | 228 kts | 315° |
| 2026-05-04 02:39 | 41.72461 | 44.87645 | 4882 ft | 262 kts | 315° |
| 2026-05-04 02:40 | 41.73789 | 44.85831 | 5528 ft | 277 kts | 315° |
| 2026-05-04 02:40 | 41.75122 | 44.83926 | 6389 ft | 284 kts | 306° |
| 2026-05-04 02:40 | 41.75926 | 44.81528 | 7281 ft | 283 kts | 278° |
| 2026-05-04 02:40 | 41.75994 | 44.78906 | 8140 ft | 282 kts | 263° |
| 2026-05-04 02:41 | 41.75839 | 44.76281 | 9091 ft | 283 kts | 262° |
| 2026-05-04 02:41 | 41.75726 | 44.73673 | 9995 ft | 285 kts | 263° |
| 2026-05-04 02:41 | 41.75680 | 44.70951 | 10409 ft | 308 kts | 265° |
| 2026-05-04 02:41 | 41.75699 | 44.67934 | 10546 ft | 338 kts | 267° |
| 2026-05-04 02:42 | 41.75786 | 44.64676 | 10978 ft | 355 kts | 268° |
| 2026-05-04 02:42 | 41.75925 | 44.61387 | 11881 ft | 354 kts | 269° |
| 2026-05-04 02:42 | 41.76089 | 44.58064 | 12637 ft | 357 kts | 270° |
| 2026-05-04 02:42 | 41.76267 | 44.54754 | 13525 ft | 357 kts | 270° |
| 2026-05-04 02:43 | 41.76449 | 44.51430 | 14305 ft | 359 kts | 270° |
| 2026-05-04 02:43 | 41.76634 | 44.48082 | 14924 ft | 363 kts | 270° |
| 2026-05-04 02:43 | 41.76822 | 44.44681 | 15582 ft | 368 kts | 271° |
| 2026-05-04 02:43 | 41.77012 | 44.41246 | 16204 ft | 371 kts | 270° |
| 2026-05-04 02:44 | 41.77204 | 44.37766 | 16852 ft | 376 kts | 270° |
| 2026-05-04 02:44 | 41.77395 | 44.34289 | 17478 ft | 380 kts | 270° |
| 2026-05-04 02:44 | 41.77590 | 44.30727 | 18100 ft | 385 kts | 270° |
| 2026-05-04 02:44 | 41.77786 | 44.27130 | 18618 ft | 389 kts | 270° |
| 2026-05-04 02:45 | 41.77983 | 44.23496 | 19092 ft | 393 kts | 270° |
| 2026-05-04 02:45 | 41.78180 | 44.19816 | 19580 ft | 397 kts | 270° |
| 2026-05-04 02:45 | 41.78344 | 44.16110 | 20016 ft | 400 kts | 266° |
| 2026-05-04 02:45 | 41.78031 | 44.12431 | 20459 ft | 397 kts | 252° |
| 2026-05-04 02:46 | 41.77196 | 44.08897 | 20902 ft | 398 kts | 246° |
| 2026-05-04 02:46 | 41.76162 | 44.05490 | 21363 ft | 400 kts | 244° |
| 2026-05-04 02:46 | 41.75055 | 44.02050 | 21788 ft | 404 kts | 243° |
| 2026-05-04 02:46 | 41.73942 | 43.98582 | 22291 ft | 407 kts | 243° |
| 2026-05-04 02:47 | 41.72836 | 43.95072 | 22804 ft | 411 kts | 244° |
| 2026-05-04 02:47 | 41.71733 | 43.91506 | 23313 ft | 415 kts | 244° |
| 2026-05-04 02:47 | 41.70631 | 43.87899 | 23775 ft | 419 kts | 244° |
| 2026-05-04 02:47 | 41.69532 | 43.84278 | 24232 ft | 423 kts | 244° |
| 2026-05-04 02:48 | 41.68422 | 43.80611 | 24719 ft | 426 kts | 244° |
| 2026-05-04 02:48 | 41.67306 | 43.76923 | 25154 ft | 429 kts | 244° |
| 2026-05-04 02:48 | 41.66180 | 43.73207 | 25632 ft | 433 kts | 244° |
| 2026-05-04 02:48 | 41.65044 | 43.69464 | 26100 ft | 436 kts | 244° |
| 2026-05-04 02:49 | 41.63899 | 43.65698 | 26551 ft | 439 kts | 244° |
| 2026-05-04 02:49 | 41.62740 | 43.61889 | 26985 ft | 443 kts | 244° |
| 2026-05-04 02:49 | 41.61573 | 43.58063 | 27431 ft | 447 kts | 244° |
| 2026-05-04 02:49 | 41.60393 | 43.54200 | 27841 ft | 450 kts | 244° |
| 2026-05-04 02:50 | 41.59216 | 43.50352 | 28271 ft | 454 kts | 244° |
| 2026-05-04 02:50 | 41.58015 | 43.46430 | 28705 ft | 457 kts | 244° |
| 2026-05-04 02:50 | 41.56808 | 43.42495 | 29254 ft | 458 kts | 244° |
| 2026-05-04 02:50 | 41.55604 | 43.38571 | 29834 ft | 458 kts | 244° |
| 2026-05-04 02:51 | 41.54408 | 43.34678 | 30442 ft | 455 kts | 243° |
| 2026-05-04 02:51 | 41.53205 | 43.30769 | 30790 ft | 454 kts | 243° |
| 2026-05-04 02:51 | 41.52006 | 43.26879 | 31154 ft | 452 kts | 244° |
| 2026-05-04 02:51 | 41.50811 | 43.23012 | 31526 ft | 450 kts | 244° |
| 2026-05-04 02:52 | 41.49617 | 43.19155 | 31752 ft | 450 kts | 244° |
| 2026-05-04 02:52 | 41.48409 | 43.15264 | 31792 ft | 456 kts | 244° |
| 2026-05-04 02:52 | 41.45951 | 43.07404 | 31820 ft | 462 kts | 243° |
| 2026-05-04 02:53 | 41.43472 | 42.99545 | 31799 ft | 462 kts | 244° |
| 2026-05-04 02:53 | 41.41760 | 42.91215 | 31800 ft | 469 kts | 256° |
| 2026-05-04 02:54 | 41.40778 | 42.82607 | 31800 ft | 470 kts | 258° |
| 2026-05-04 02:54 | 41.39836 | 42.73994 | 31789 ft | 470 kts | 257° |
| 2026-05-04 02:55 | 41.38473 | 42.62548 | 31790 ft | 469 kts | 257° |
| 2026-05-04 02:56 | 41.37414 | 42.53968 | 31781 ft | 469 kts | 257° |
| 2026-05-04 02:56 | 41.36352 | 42.45412 | 31809 ft | 469 kts | 256° |
| 2026-05-04 02:57 | 41.35278 | 42.36817 | 31775 ft | 471 kts | 256° |
| 2026-05-04 02:57 | 41.34208 | 42.28287 | 31771 ft | 469 kts | 256° |
| 2026-05-04 02:58 | 41.33127 | 42.19730 | 31777 ft | 469 kts | 256° |
| 2026-05-04 02:58 | 41.32039 | 42.11164 | 31777 ft | 469 kts | 256° |
| 2026-05-04 02:59 | 41.30943 | 42.02588 | 31769 ft | 469 kts | 256° |
| 2026-05-04 02:59 | 41.29830 | 41.94042 | 31790 ft | 469 kts | 256° |
| 2026-05-04 03:00 | 41.28691 | 41.85543 | 31808 ft | 467 kts | 256° |
| 2026-05-04 03:00 | 41.27560 | 41.77042 | 31781 ft | 469 kts | 256° |
| 2026-05-04 03:01 | 41.26430 | 41.68498 | 31784 ft | 469 kts | 256° |
| 2026-05-04 03:01 | 41.25297 | 41.59961 | 31781 ft | 469 kts | 256° |
| 2026-05-04 03:02 | 41.24166 | 41.51394 | 31786 ft | 469 kts | 257° |
| 2026-05-04 03:02 | 41.23060 | 41.42832 | 31779 ft | 470 kts | 257° |
| 2026-05-04 03:03 | 41.21925 | 41.34294 | 31773 ft | 469 kts | 257° |
| 2026-05-04 03:03 | 41.20767 | 41.25760 | 31794 ft | 470 kts | 256° |
| 2026-05-04 03:04 | 41.19603 | 41.17269 | 31775 ft | 471 kts | 256° |
| 2026-05-04 03:04 | 41.18428 | 41.08730 | 31774 ft | 470 kts | 256° |
| 2026-05-04 03:05 | 41.17246 | 41.00184 | 31777 ft | 470 kts | 256° |
| 2026-05-04 03:05 | 41.16058 | 40.91647 | 31776 ft | 470 kts | 256° |
| 2026-05-04 03:06 | 41.14848 | 40.83156 | 31771 ft | 469 kts | 256° |
| 2026-05-04 03:06 | 41.13628 | 40.74698 | 31782 ft | 468 kts | 256° |
| 2026-05-04 03:07 | 41.12422 | 40.66242 | 31785 ft | 467 kts | 256° |
| 2026-05-04 03:07 | 41.11216 | 40.57774 | 31780 ft | 467 kts | 256° |
| 2026-05-04 03:08 | 41.10007 | 40.49320 | 31784 ft | 467 kts | 256° |
| 2026-05-04 03:08 | 41.08791 | 40.40865 | 31788 ft | 467 kts | 256° |
| 2026-05-04 03:09 | 41.07567 | 40.32405 | 31784 ft | 467 kts | 256° |
| 2026-05-04 03:09 | 41.06337 | 40.23951 | 31786 ft | 467 kts | 256° |
| 2026-05-04 03:10 | 41.05112 | 40.15570 | 31790 ft | 467 kts | 256° |
| 2026-05-04 03:10 | 41.03871 | 40.07128 | 31798 ft | 467 kts | 256° |
| 2026-05-04 03:11 | 41.02623 | 39.98688 | 31806 ft | 466 kts | 256° |
| 2026-05-04 03:11 | 41.01370 | 39.90252 | 31801 ft | 466 kts | 256° |
| 2026-05-04 03:12 | 41.00117 | 39.81835 | 31802 ft | 466 kts | 257° |
| 2026-05-04 03:12 | 40.99952 | 39.73267 | 31798 ft | 474 kts | 272° |
| 2026-05-04 03:13 | 41.00864 | 39.64582 | 31800 ft | 477 kts | 276° |
| 2026-05-04 03:13 | 41.01845 | 39.55879 | 31798 ft | 479 kts | 275° |
| 2026-05-04 03:14 | 41.02722 | 39.47135 | 31796 ft | 479 kts | 274° |
| 2026-05-04 03:14 | 41.03546 | 39.38382 | 31780 ft | 479 kts | 274° |
| 2026-05-04 03:15 | 41.04358 | 39.29618 | 31778 ft | 479 kts | 274° |
| 2026-05-04 03:15 | 41.05165 | 39.20849 | 31780 ft | 479 kts | 274° |
| 2026-05-04 03:16 | 41.05959 | 39.12149 | 31785 ft | 479 kts | 274° |
| 2026-05-04 03:16 | 41.06754 | 39.03378 | 31782 ft | 479 kts | 274° |
| 2026-05-04 03:17 | 41.07559 | 38.94591 | 31790 ft | 479 kts | 274° |
| 2026-05-04 03:17 | 41.08363 | 38.85822 | 31800 ft | 480 kts | 274° |
| 2026-05-04 03:18 | 41.09163 | 38.77018 | 31800 ft | 482 kts | 274° |
| 2026-05-04 03:18 | 41.09944 | 38.68256 | 31790 ft | 482 kts | 273° |
| 2026-05-04 03:19 | 41.10699 | 38.59429 | 31781 ft | 481 kts | 273° |
| 2026-05-04 03:19 | 41.11440 | 38.50599 | 31802 ft | 481 kts | 273° |
| 2026-05-04 03:20 | 41.12179 | 38.41741 | 31791 ft | 483 kts | 273° |
| 2026-05-04 03:20 | 41.12917 | 38.32875 | 31794 ft | 483 kts | 273° |
| 2026-05-04 03:21 | 41.13638 | 38.24098 | 31794 ft | 483 kts | 273° |
| 2026-05-04 03:21 | 41.14358 | 38.15239 | 31814 ft | 483 kts | 272° |
| 2026-05-04 03:22 | 41.15080 | 38.06348 | 31800 ft | 485 kts | 273° |
| 2026-05-04 03:22 | 41.15801 | 37.97438 | 31801 ft | 486 kts | 273° |
| 2026-05-04 03:23 | 41.16517 | 37.88533 | 31801 ft | 486 kts | 273° |
| 2026-05-04 03:23 | 41.17258 | 37.79614 | 31797 ft | 486 kts | 273° |
| 2026-05-04 03:24 | 41.18016 | 37.70684 | 31803 ft | 488 kts | 273° |
| 2026-05-04 03:24 | 41.18746 | 37.61774 | 31796 ft | 488 kts | 272° |
| 2026-05-04 03:25 | 41.19298 | 37.52798 | 31793 ft | 488 kts | 272° |
| 2026-05-04 03:25 | 41.19928 | 37.43826 | 31803 ft | 489 kts | 272° |
| 2026-05-04 03:26 | 41.20603 | 37.34814 | 31799 ft | 492 kts | 272° |
| 2026-05-04 03:26 | 41.21279 | 37.25753 | 31793 ft | 493 kts | 272° |
| 2026-05-04 03:27 | 41.21961 | 37.16693 | 31782 ft | 493 kts | 272° |
| 2026-05-04 03:27 | 41.22658 | 37.07676 | 31782 ft | 493 kts | 272° |
| 2026-05-04 03:28 | 41.23359 | 36.98596 | 31795 ft | 494 kts | 273° |
| 2026-05-04 03:28 | 41.24055 | 36.89480 | 31773 ft | 496 kts | 273° |
| 2026-05-04 03:29 | 41.24745 | 36.80346 | 31772 ft | 497 kts | 273° |
| 2026-05-04 03:29 | 41.25429 | 36.71187 | 31778 ft | 498 kts | 272° |
| 2026-05-04 03:30 | 41.26106 | 36.62019 | 31784 ft | 499 kts | 273° |
| 2026-05-04 03:30 | 41.26145 | 36.52850 | 31770 ft | 493 kts | 257° |
| 2026-05-04 03:31 | 41.24181 | 36.44288 | 31772 ft | 485 kts | 244° |
| 2026-05-04 03:31 | 41.21563 | 36.36030 | 31766 ft | 484 kts | 244° |
| 2026-05-04 03:32 | 41.19070 | 36.27678 | 31773 ft | 488 kts | 245° |
| 2026-05-04 03:32 | 41.16710 | 36.19273 | 31770 ft | 488 kts | 246° |
| 2026-05-04 03:33 | 41.14365 | 36.10804 | 31766 ft | 488 kts | 246° |
| 2026-05-04 03:33 | 41.12012 | 36.02347 | 31762 ft | 488 kts | 246° |
| 2026-05-04 03:34 | 41.09630 | 35.93854 | 31773 ft | 494 kts | 246° |